Time;durP1;ratioP1;P1;durP2;ratioP2;P2;SDS_P1;SDS_P2;PMS_P1;PMS_P2;Temp;Humidity;BMP_temperature;BMP_pressure;BME280_temperature;BME280_humidity;BME280_pressure;Samples;Min_cycle;Max_cycle;Signal;HPM_P1;HPM_P2
2023/08/17 00:01:33;;;;;;;1.67;1.25;;;22.10;84.60;;;;;;5073339;28;20187;-36
2023/08/17 00:03:59;;;;;;;2.15;1.30;;;21.60;76.70;;;;;;5072978;28;20163;-34
2023/08/17 00:06:26;;;;;;;1.83;1.30;;;;;;;;;;5073311;28;20135;-37
2023/08/17 00:08:54;;;;;;;2.53;1.35;;;;;;;;;;5054876;28;20140;-36
2023/08/17 00:11:21;;;;;;;3.05;1.33;;;21.50;83.90;;;;;;5053236;28;20123;-36
2023/08/17 00:13:48;;;;;;;2.47;1.33;;;;;;;;;;5052956;28;20425;-33
2023/08/17 00:16:16;;;;;;;1.92;1.30;;;22.70;84.50;;;;;;5071613;28;20127;-35
2023/08/17 00:18:43;;;;;;;1.67;1.20;;;21.80;84.00;;;;;;5072787;28;20048;-36
2023/08/17 00:21:10;;;;;;;2.05;1.20;;;;;;;;;;5073006;28;20147;-37
2023/08/17 00:23:36;;;;;;;2.13;1.30;;;21.40;83.80;;;;;;5068273;28;20123;-37
2023/08/17 00:26:04;;;;;;;1.25;1.15;;;;;;;;;;5052938;28;20135;-36
2023/08/17 00:28:30;;;;;;;1.95;1.10;;;21.50;78.20;;;;;;5052805;28;20234;-35
2023/08/17 00:30:57;;;;;;;1.50;1.08;;;21.50;84.30;;;;;;5052692;28;20554;-39
2023/08/17 00:33:25;;;;;;;2.53;1.50;;;22.30;84.30;;;;;;5052578;28;20128;-39
2023/08/17 00:35:52;;;;;;;2.38;1.33;;;20.90;83.70;;;;;;5052441;28;20131;-39
2023/08/17 00:38:19;;;;;;;1.85;1.30;;;;;;;;;;5072743;28;20132;-36
2023/08/17 00:40:45;;;;;;;2.63;1.50;;;21.60;84.40;;;;;;5061826;28;20128;-37
2023/08/17 00:43:12;;;;;;;3.58;1.20;;;;;;;;;;5052390;28;20127;-33
2023/08/17 00:45:39;;;;;;;1.80;1.30;;;21.80;84.50;;;;;;5052419;28;20590;-36
2023/08/17 00:48:07;;;;;;;1.30;1.00;;;22.20;84.40;;;;;;5052597;28;20135;-34
2023/08/17 00:50:35;;;;;;;1.70;1.10;;;21.90;85.10;;;;;;5052529;28;20045;-37
2023/08/17 00:53:02;;;;;;;1.90;1.20;;;21.90;73.30;;;;;;5052120;28;20080;-31
2023/08/17 00:55:29;;;;;;;1.45;1.30;;;20.80;72.10;;;;;;5052488;28;20080;-32
2023/08/17 00:57:56;;;;;;;1.48;1.10;;;21.80;67.50;;;;;;5052792;28;20076;-31
2023/08/17 01:00:23;;;;;;;1.63;1.10;;;20.90;71.20;;;;;;5052143;28;20590;-32
2023/08/17 01:02:50;;;;;;;1.25;1.10;;;21.60;84.00;;;;;;5052001;28;20092;-30
2023/08/17 01:05:16;;;;;;;1.60;1.40;;;21.10;84.20;;;;;;5052474;28;20128;-31
2023/08/17 01:07:45;;;;;;;2.03;1.17;;;21.80;67.60;;;;;;5052132;28;20131;-34
2023/08/17 01:10:12;;;;;;;1.45;1.20;;;;;;;;;;5052094;28;20045;-33
2023/08/17 01:12:42;;;;;;;2.30;1.30;;;22.30;84.40;;;;;;5052143;28;20153;-30
2023/08/17 01:15:10;;;;;;;1.30;1.20;;;21.70;84.00;;;;;;5061085;28;20557;-30
2023/08/17 01:17:40;;;;;;;1.50;1.15;;;21.70;67.50;;;;;;5072058;28;20131;-32
2023/08/17 01:20:09;;;;;;;1.92;1.10;;;21.60;84.40;;;;;;5072115;28;20124;-31
2023/08/17 01:22:36;;;;;;;1.20;1.10;;;22.90;77.10;;;;;;5071606;28;20048;-33
2023/08/17 01:25:04;;;;;;;1.75;1.13;;;21.90;81.00;;;;;;5071909;28;20095;-30
2023/08/17 01:27:42;;;;;;;1.60;1.10;;;21.70;85.00;;;;;;5071890;28;20128;-31
2023/08/17 01:30:09;;;;;;;1.98;1.10;;;21.90;84.20;;;;;;5070254;28;20135;-31
2023/08/17 01:32:38;;;;;;;1.63;1.20;;;21.70;67.50;;;;;;5071724;28;20071;-35
2023/08/17 01:35:10;;;;;;;1.85;1.23;;;21.50;84.00;;;;;;5071774;28;20086;-31
2023/08/17 01:37:37;;;;;;;2.25;1.30;;;21.70;84.20;;;;;;5061628;28;20144;-31
2023/08/17 01:40:07;;;;;;;2.88;1.05;;;21.70;67.50;;;;;;5051624;28;20128;-32
2023/08/17 01:42:34;;;;;;;1.90;1.20;;;21.60;85.00;;;;;;5051411;28;20059;-30
2023/08/17 01:45:00;;;;;;;1.70;1.35;;;21.90;71.70;;;;;;5051659;28;20127;-32
2023/08/17 01:47:27;;;;;;;2.95;1.25;;;;;;;;;;5051699;28;20132;-30
2023/08/17 01:49:59;;;;;;;2.05;1.30;;;;;;;;;;5052263;28;20160;-35
2023/08/17 01:52:26;;;;;;;1.85;1.20;;;21.60;84.10;;;;;;5071547;28;20050;-31
2023/08/17 01:54:53;;;;;;;1.13;1.02;;;;;;;;;;5071690;28;20087;-34
2023/08/17 01:57:21;;;;;;;1.77;1.27;;;21.30;84.00;;;;;;5071212;28;20131;-31
2023/08/17 01:59:48;;;;;;;1.63;1.10;;;21.60;84.40;;;;;;5071782;28;20072;-31
2023/08/17 02:02:15;;;;;;;1.38;1.13;;;22.00;84.40;;;;;;5071153;28;20135;-31
2023/08/17 02:04:42;;;;;;;1.70;1.10;;;;;;;;;;5071530;28;20520;-34
2023/08/17 02:07:09;;;;;;;2.08;1.20;;;;;;;;;;5071499;28;20482;-35
2023/08/17 02:09:36;;;;;;;1.65;1.20;;;21.60;84.30;;;;;;5074289;28;20470;-31
2023/08/17 02:12:03;;;;;;;1.25;1.00;;;21.40;74.10;;;;;;5075226;28;20135;-31
2023/08/17 02:14:31;;;;;;;1.77;1.20;;;21.60;67.50;;;;;;5073476;28;20131;-33
2023/08/17 02:16:57;;;;;;;2.13;1.10;;;21.20;72.60;;;;;;5075427;28;20132;-32
2023/08/17 02:19:24;;;;;;;1.30;1.10;;;21.00;84.20;;;;;;5075288;28;20080;-31
2023/08/17 02:21:51;;;;;;;2.33;1.20;;;22.60;84.60;;;;;;5074942;28;20156;-30
2023/08/17 02:24:18;;;;;;;1.92;1.20;;;;;;;;;;5075232;28;20132;-33
2023/08/17 02:26:45;;;;;;;1.83;1.20;;;22.00;82.00;;;;;;5075413;28;20140;-31
2023/08/17 02:29:11;;;;;;;1.42;1.10;;;21.10;84.30;;;;;;5075011;28;20048;-30
2023/08/17 02:31:39;;;;;;;2.53;1.20;;;21.30;76.90;;;;;;5074483;28;20132;-31
2023/08/17 02:34:06;;;;;;;1.98;1.13;;;21.80;76.00;;;;;;5074832;28;20524;-33
2023/08/17 02:36:33;;;;;;;1.27;1.10;;;21.50;84.20;;;;;;5074737;28;20083;-30
2023/08/17 02:38:59;;;;;;;2.05;1.20;;;21.40;84.20;;;;;;5074924;28;20095;-30
2023/08/17 02:41:26;;;;;;;1.50;1.17;;;;;;;;;;5074722;28;20131;-33
2023/08/17 02:43:53;;;;;;;3.20;1.40;;;21.30;75.70;;;;;;5056870;28;20136;-31
2023/08/17 02:46:20;;;;;;;2.42;1.08;;;;;;;;;;5054816;28;20128;-31
2023/08/17 02:48:49;;;;;;;1.35;1.15;;;21.60;67.50;;;;;;5054762;28;20140;-30
2023/08/17 02:51:16;;;;;;;1.80;1.25;;;21.40;84.20;;;;;;5054720;28;20615;-32
2023/08/17 02:53:43;;;;;;;2.75;1.40;;;22.00;74.80;;;;;;5054816;28;20132;-32
2023/08/17 02:56:11;;;;;;;2.88;1.20;;;22.70;85.20;;;;;;5055021;28;20049;-30
2023/08/17 02:58:40;;;;;;;1.30;0.95;;;21.50;84.10;;;;;;5054568;28;20055;-31
2023/08/17 03:01:06;;;;;;;1.30;1.10;;;21.40;75.80;;;;;;5057051;28;20593;-37
2023/08/17 03:03:33;;;;;;;1.48;1.20;;;;;;;;;;5064830;28;20135;-35
2023/08/17 03:06:02;;;;;;;1.85;1.20;;;21.50;84.30;;;;;;5063526;28;20123;-37
2023/08/17 03:08:28;;;;;;;1.75;1.08;;;21.80;84.30;;;;;;5064355;28;20662;-38
2023/08/17 03:10:55;;;;;;;3.33;1.40;;;21.70;70.40;;;;;;5062647;28;20041;-36
2023/08/17 03:13:22;;;;;;;1.98;1.30;;;21.50;84.50;;;;;;5062422;28;20458;-35
2023/08/17 03:15:48;;;;;;;1.48;1.10;;;22.20;84.60;;;;;;5065500;28;20124;-37
2023/08/17 03:18:15;;;;;;;2.03;1.30;;;;;;;;;;5062996;28;20143;-36
2023/08/17 03:20:42;;;;;;;2.00;1.10;;;21.60;85.00;;;;;;5063349;28;20124;-38
2023/08/17 03:23:10;;;;;;;1.95;1.10;;;21.20;84.30;;;;;;5064350;28;20120;-36
2023/08/17 03:25:37;;;;;;;1.65;1.20;;;21.70;84.20;;;;;;5062744;28;20129;-36
2023/08/17 03:28:04;;;;;;;1.27;1.10;;;21.90;81.80;;;;;;5064171;28;20048;-38
2023/08/17 03:30:31;;;;;;;1.30;1.00;;;20.80;79.20;;;;;;5066936;28;20059;-37
2023/08/17 03:32:58;;;;;;;2.65;1.20;;;20.40;75.00;;;;;;5062670;28;20565;-36
2023/08/17 03:35:25;;;;;;;1.92;1.10;;;22.00;84.40;;;;;;5063896;28;20128;-34
2023/08/17 03:37:50;;;;;;;1.63;1.10;;;21.20;75.20;;;;;;5061623;28;20124;-36
2023/08/17 03:40:18;;;;;;;2.25;1.10;;;21.30;84.90;;;;;;5053676;28;20132;-36
2023/08/17 03:42:45;;;;;;;1.77;1.40;;;;;;;;;;5053548;28;20132;-35
2023/08/17 03:45:12;;;;;;;1.55;1.10;;;22.50;75.10;;;;;;5058014;28;20131;-38
2023/08/17 03:47:39;;;;;;;1.73;1.10;;;21.70;84.20;;;;;;5054284;28;20148;-37
2023/08/17 03:50:07;;;;;;;1.02;0.93;;;21.50;84.90;;;;;;5053872;28;20132;-31
2023/08/17 03:52:33;;;;;;;2.65;1.25;;;21.20;84.70;;;;;;5053133;28;20124;-31
2023/08/17 03:55:01;;;;;;;2.22;1.10;;;;;;;;;;5053661;28;20052;-34
2023/08/17 03:57:29;;;;;;;1.20;1.10;;;21.80;84.20;;;;;;5053653;28;20068;-32
2023/08/17 03:59:55;;;;;;;1.73;1.20;;;20.50;83.90;;;;;;5053683;28;20140;-31
2023/08/17 04:02:22;;;;;;;2.92;1.10;;;21.40;84.00;;;;;;5064436;28;20467;-31
2023/08/17 04:04:49;;;;;;;1.25;1.00;;;;;;;;;;5073521;28;20416;-31
2023/08/17 04:07:21;;;;;;;1.58;1.15;;;21.30;84.50;;;;;;5073475;28;20472;-31
2023/08/17 04:09:48;;;;;;;1.52;1.10;;;21.80;85.20;;;;;;5073361;28;20123;-30
2023/08/17 04:12:15;;;;;;;1.35;1.20;;;21.40;67.40;;;;;;5072867;28;20131;-33
2023/08/17 04:14:43;;;;;;;2.60;1.23;;;21.20;70.60;;;;;;5073305;28;20148;-32
2023/08/17 04:17:10;;;;;;;3.08;1.30;;;;;;;;;;5073375;28;20131;-36
2023/08/17 04:19:37;;;;;;;1.88;1.15;;;;;;;;;;5064501;28;20554;-34
2023/08/17 04:22:04;;;;;;;2.72;1.10;;;22.10;82.90;;;;;;5072767;28;20577;-30
2023/08/17 04:24:31;;;;;;;1.95;1.30;;;21.10;84.40;;;;;;5072761;28;20053;-31
2023/08/17 04:26:57;;;;;;;2.58;1.30;;;21.90;72.60;;;;;;5072810;28;20470;-31
2023/08/17 04:29:24;;;;;;;2.03;1.30;;;20.60;83.80;;;;;;5073220;28;20136;-31
2023/08/17 04:31:52;;;;;;;1.50;1.13;;;20.90;84.20;;;;;;5072176;28;20155;-31
2023/08/17 04:34:19;;;;;;;2.15;1.20;;;21.20;84.90;;;;;;5067557;28;20127;-31
2023/08/17 04:36:46;;;;;;;1.70;1.17;;;;;;;;;;5064389;28;20127;-34
2023/08/17 04:39:12;;;;;;;2.95;1.30;;;21.20;84.00;;;;;;5072552;28;20128;-30
2023/08/17 04:41:39;;;;;;;2.28;1.20;;;20.70;84.20;;;;;;5072782;28;20072;-31
2023/08/17 04:44:06;;;;;;;1.58;1.20;;;20.80;70.00;;;;;;5065359;28;20123;-34
2023/08/17 04:46:33;;;;;;;1.73;1.10;;;21.60;84.30;;;;;;5052789;28;20482;-31
2023/08/17 04:49:01;;;;;;;1.85;1.08;;;21.10;84.10;;;;;;5052526;28;20127;-31
2023/08/17 04:51:28;;;;;;;1.90;1.10;;;21.60;84.70;;;;;;5053478;28;20137;-31
2023/08/17 04:53:55;;;;;;;1.83;1.13;;;;;;;;;;5052115;28;20131;-31
2023/08/17 04:56:21;;;;;;;1.55;1.17;;;21.10;84.00;;;;;;5052501;28;20546;-31
2023/08/17 04:58:48;;;;;;;1.83;1.33;;;;;;;;;;5052385;28;20136;-34
2023/08/17 05:01:15;;;;;;;1.42;1.20;;;22.00;85.00;;;;;;5052735;28;20128;-31
2023/08/17 05:03:42;;;;;;;1.15;1.00;;;21.00;77.20;;;;;;5052285;28;20128;-31
2023/08/17 05:06:10;;;;;;;2.13;1.10;;;21.40;70.60;;;;;;5051926;28;20140;-32
2023/08/17 05:08:37;;;;;;;1.20;1.10;;;;;;;;;;5053284;28;20076;-32
2023/08/17 05:11:04;;;;;;;1.10;1.00;;;21.00;84.10;;;;;;5052001;28;20135;-30
2023/08/17 05:13:31;;;;;;;2.35;1.20;;;;;;;;;;5052066;28;20079;-31
2023/08/17 05:15:57;;;;;;;2.47;1.23;;;21.40;84.70;;;;;;5068303;28;20135;-31
2023/08/17 05:18:24;;;;;;;2.08;1.17;;;21.30;84.30;;;;;;5071868;28;20136;-30
2023/08/17 05:20:51;;;;;;;1.98;1.30;;;;;;;;;;5071771;28;20131;-34
2023/08/17 05:23:19;;;;;;;1.20;1.10;;;21.40;67.60;;;;;;5071640;28;20127;-35
2023/08/17 05:25:47;;;;;;;1.80;1.17;;;21.30;67.60;;;;;;5070734;28;20529;-31
2023/08/17 05:28:14;;;;;;;1.65;1.08;;;;;;;;;;5072056;28;20382;-31
2023/08/17 05:30:41;;;;;;;1.63;1.15;;;;;;;;;;5071774;28;20123;-33
2023/08/17 05:33:08;;;;;;;1.90;1.13;;;22.50;85.30;;;;;;5071702;28;20128;-30
2023/08/17 05:35:35;;;;;;;1.63;1.13;;;20.80;84.50;;;;;;5071911;28;20131;-30
2023/08/17 05:38:02;;;;;;;1.75;1.10;;;21.30;72.70;;;;;;5071871;28;20151;-31
2023/08/17 05:40:31;;;;;;;3.40;1.13;;;21.70;85.50;;;;;;5065923;28;20102;-30
2023/08/17 05:42:58;;;;;;;2.80;1.20;;;21.30;83.10;;;;;;5061278;28;20119;-30
2023/08/17 05:45:25;;;;;;;2.35;1.10;;;21.80;78.50;;;;;;5060618;28;20083;-31
2023/08/17 05:47:52;;;;;;;2.10;1.30;;;21.30;67.60;;;;;;5062155;28;20589;-34
2023/08/17 05:50:19;;;;;;;1.83;1.10;;;20.80;85.00;;;;;;5061540;28;20124;-31
2023/08/17 05:52:46;;;;;;;2.78;1.20;;;21.40;78.50;;;;;;5059917;28;20041;-31
2023/08/17 05:55:13;;;;;;;1.70;1.15;;;21.00;84.60;;;;;;5061893;28;20465;-31
2023/08/17 05:57:41;;;;;;;1.75;1.20;;;20.40;84.00;;;;;;5059390;28;20120;-31
2023/08/17 06:00:12;;;;;;;1.95;1.10;;;21.30;67.60;;;;;;5056845;28;20124;-34
2023/08/17 06:02:38;;;;;;;3.00;1.27;;;21.40;71.10;;;;;;5056873;28;20101;-32
2023/08/17 06:05:06;;;;;;;1.75;1.35;;;20.90;75.80;;;;;;5062578;28;20131;-32
2023/08/17 06:07:33;;;;;;;2.33;1.10;;;21.60;79.10;;;;;;5061100;28;20087;-32
2023/08/17 06:09:59;;;;;;;2.25;1.30;;;21.00;84.60;;;;;;5061433;28;20143;-31
2023/08/17 06:12:26;;;;;;;1.63;1.10;;;21.70;84.70;;;;;;5061458;28;20968;-31
2023/08/17 06:14:54;;;;;;;2.28;1.00;;;21.20;74.20;;;;;;5058373;28;20127;-31
2023/08/17 06:17:21;;;;;;;2.00;1.20;;;22.20;72.80;;;;;;5060456;28;20199;-32
2023/08/17 06:19:47;;;;;;;1.80;1.08;;;21.30;75.50;;;;;;5058312;28;20131;-33
2023/08/17 06:22:14;;;;;;;2.03;1.20;;;20.70;84.20;;;;;;5061343;28;20119;-31
2023/08/17 06:24:41;;;;;;;1.52;1.10;;;;;;;;;;5061786;28;20127;-33
2023/08/17 06:27:08;;;;;;;4.28;1.20;;;;;;;;;;5059677;28;20127;-33
2023/08/17 06:29:35;;;;;;;2.25;1.15;;;;;;;;;;5059277;28;20091;-32
2023/08/17 06:32:04;;;;;;;2.53;1.10;;;22.20;84.80;;;;;;5065221;28;20041;-32
2023/08/17 06:34:30;;;;;;;1.83;1.13;;;21.40;85.30;;;;;;5060896;28;20136;-32
2023/08/17 06:36:58;;;;;;;1.90;1.08;;;21.40;67.60;;;;;;5063965;28;20469;-35
2023/08/17 06:39:25;;;;;;;3.42;1.30;;;;;;;;;;5071334;28;20502;-35
2023/08/17 06:41:51;;;;;;;1.63;1.10;;;21.30;72.80;;;;;;5071214;28;20102;-31
2023/08/17 06:44:18;;;;;;;1.70;1.20;;;22.00;84.80;;;;;;5071044;28;20131;-31
2023/08/17 06:46:45;;;;;;;3.63;1.30;;;21.00;84.70;;;;;;5064434;28;20129;-31
2023/08/17 06:49:13;;;;;;;3.67;1.20;;;21.30;67.50;;;;;;5051090;28;20087;-34
2023/08/17 06:51:40;;;;;;;3.67;1.20;;;21.20;70.30;;;;;;5051094;28;20084;-33
2023/08/17 06:54:08;;;;;;;2.05;1.30;;;21.30;67.50;;;;;;5051068;28;20573;-31
2023/08/17 06:56:35;;;;;;;2.35;1.17;;;21.70;84.50;;;;;;5053283;28;20088;-30
2023/08/17 06:59:02;;;;;;;2.90;1.70;;;21.40;85.40;;;;;;5055029;28;20057;-30
2023/08/17 07:01:29;;;;;;;4.32;1.40;;;21.70;85.50;;;;;;5057392;28;20044;-31
2023/08/17 07:03:56;;;;;;;2.88;1.20;;;;;;;;;;5065646;28;20045;-34
2023/08/17 07:06:25;;;;;;;1.73;1.08;;;20.80;85.10;;;;;;5074377;28;20048;-32
2023/08/17 07:08:52;;;;;;;2.15;1.17;;;21.60;84.70;;;;;;5074685;28;20128;-31
2023/08/17 07:11:19;;;;;;;2.30;1.15;;;22.20;84.90;;;;;;5074686;28;20147;-30
2023/08/17 07:13:46;;;;;;;3.05;1.40;;;20.70;85.00;;;;;;5074120;28;20049;-31
2023/08/17 07:16:13;;;;;;;2.17;1.30;;;;;;;;;;5074388;28;20054;-33
2023/08/17 07:18:40;;;;;;;2.15;1.20;;;21.20;84.40;;;;;;5070419;28;20501;-31
2023/08/17 07:21:07;;;;;;;2.33;1.25;;;;;;;;;;5054333;28;20131;-33
2023/08/17 07:23:35;;;;;;;2.03;1.00;;;21.50;84.50;;;;;;5059272;28;20160;-31
2023/08/17 07:26:02;;;;;;;2.42;1.20;;;20.90;84.20;;;;;;5054371;28;20163;-37
2023/08/17 07:28:28;;;;;;;3.17;1.50;;;21.70;84.60;;;;;;5054417;28;20152;-34
2023/08/17 07:30:55;;;;;;;2.38;1.30;;;20.80;72.80;;;;;;5054374;28;20128;-36
2023/08/17 07:33:22;;;;;;;2.97;1.20;;;22.00;84.60;;;;;;5053930;28;20140;-35
2023/08/17 07:35:48;;;;;;;3.53;1.25;;;20.10;84.10;;;;;;5062205;28;20127;-37
2023/08/17 07:38:15;;;;;;;1.85;1.25;;;;;;;;;;5073801;28;20131;-32
2023/08/17 07:40:43;;;;;;;2.55;1.20;;;20.50;68.70;;;;;;5073934;28;20084;-39
2023/08/17 07:43:10;;;;;;;3.35;1.30;;;20.80;84.30;;;;;;5073752;28;20072;-37
2023/08/17 07:45:37;;;;;;;2.65;1.30;;;;;;;;;;5073739;28;20680;-38
2023/08/17 07:48:05;;;;;;;4.95;1.42;;;21.30;76.30;;;;;;5073148;28;20454;-36
2023/08/17 07:50:32;;;;;;;5.50;1.30;;;;;;;;;;5073444;28;20132;-33
2023/08/17 07:52:58;;;;;;;2.90;1.40;;;20.70;84.10;;;;;;5063836;28;20136;-38
2023/08/17 07:55:25;;;;;;;3.10;1.40;;;;;;;;;;5060919;28;20135;-36
2023/08/17 07:57:53;;;;;;;2.33;1.20;;;20.90;82.40;;;;;;5081607;28;20135;-36
2023/08/17 08:00:20;;;;;;;3.55;1.30;;;21.60;80.80;;;;;;5080082;28;20163;-35
2023/08/17 08:02:47;;;;;;;3.10;1.10;;;21.10;84.50;;;;;;5073558;28;20072;-38
2023/08/17 08:05:14;;;;;;;2.53;1.27;;;20.20;83.80;;;;;;5073867;28;20132;-36
2023/08/17 08:07:41;;;;;;;3.38;1.20;;;21.30;84.30;;;;;;5073104;28;20056;-36
2023/08/17 08:10:08;;;;;;;4.05;1.30;;;20.90;84.20;;;;;;5073338;28;20131;-39
2023/08/17 08:12:35;;;;;;;3.17;1.13;;;21.40;84.30;;;;;;5065322;28;20045;-37
2023/08/17 08:15:03;;;;;;;3.97;1.30;;;21.30;84.30;;;;;;5065663;28;20123;-36
2023/08/17 08:17:30;;;;;;;2.78;1.20;;;21.70;77.00;;;;;;5093641;28;20130;-37
2023/08/17 08:19:58;;;;;;;4.43;1.33;;;;;;;;;;5072696;28;20128;-34
2023/08/17 08:22:25;;;;;;;3.13;1.40;;;;;;;;;;5057237;28;20052;-31
2023/08/17 08:24:52;;;;;;;3.50;1.30;;;20.70;84.30;;;;;;5059402;28;20044;-31
2023/08/17 08:27:19;;;;;;;2.13;1.20;;;;;;;;;;5072098;28;20123;-30
2023/08/17 08:29:46;;;;;;;4.40;1.20;;;21.30;67.30;;;;;;5073003;28;20136;-32
2023/08/17 08:32:14;;;;;;;3.35;1.55;;;21.20;67.30;;;;;;5068253;28;20073;-34
2023/08/17 08:34:41;;;;;;;3.00;1.42;;;;;;;;;;5062116;28;20517;-34
2023/08/17 08:37:08;;;;;;;3.83;1.88;;;20.70;84.20;;;;;;5060489;28;20050;-31
2023/08/17 08:39:35;;;;;;;5.38;2.05;;;;;;;;;;5060647;28;20128;-30
2023/08/17 08:42:02;;;;;;;9.10;3.20;;;21.00;69.50;;;;;;5052371;28;20148;-33
2023/08/17 08:44:28;;;;;;;6.13;3.28;;;20.00;83.60;;;;;;5052765;28;20127;-30
2023/08/17 08:46:55;;;;;;;7.57;3.00;;;;;;;;;;5052378;28;20136;-34
2023/08/17 08:49:24;;;;;;;6.35;2.85;;;21.20;70.80;;;;;;5052801;28;20136;-37
2023/08/17 08:51:51;;;;;;;7.68;2.65;;;21.30;84.30;;;;;;5052958;28;20131;-38
2023/08/17 08:54:21;;;;;;;6.90;2.65;;;22.30;85.10;;;;;;5060122;28;20048;-37
2023/08/17 08:56:48;;;;;;;4.72;2.20;;;20.40;83.80;;;;;;5064271;28;20127;-35
2023/08/17 08:59:15;;;;;;;4.93;2.22;;;20.80;84.30;;;;;;5056863;28;20136;-31
2023/08/17 09:01:41;;;;;;;5.80;2.30;;;20.80;83.90;;;;;;5058698;28;20147;-31
2023/08/17 09:04:08;;;;;;;6.03;2.40;;;22.00;79.00;;;;;;5058791;28;20124;-31
2023/08/17 09:06:36;;;;;;;4.78;2.17;;;21.10;84.40;;;;;;5063741;28;20127;-31
2023/08/17 09:09:03;;;;;;;4.82;2.10;;;21.70;85.20;;;;;;5060387;28;20131;-31
2023/08/17 09:11:31;;;;;;;5.28;1.90;;;;;;;;;;5062680;28;20489;-33
2023/08/17 09:13:58;;;;;;;4.13;1.88;;;;;;;;;;5059763;28;20052;-33
2023/08/17 09:16:24;;;;;;;4.78;1.92;;;21.30;78.60;;;;;;5057875;28;20147;-31
2023/08/17 09:18:51;;;;;;;4.50;2.00;;;;;;;;;;5051812;28;20447;-33
2023/08/17 09:21:22;;;;;;;5.40;2.30;;;21.30;67.30;;;;;;5052048;28;20152;-34
2023/08/17 09:23:53;;;;;;;3.75;2.28;;;21.70;81.20;;;;;;5052291;28;20071;-34
2023/08/17 09:26:21;;;;;;;4.43;2.28;;;21.10;82.30;;;;;;5053018;28;20496;-38
2023/08/17 09:28:48;;;;;;;5.05;2.05;;;20.80;84.20;;;;;;5063027;28;20128;-38
2023/08/17 09:31:15;;;;;;;4.13;1.90;;;20.90;75.60;;;;;;5057198;28;20560;-35
2023/08/17 09:33:41;;;;;;;4.00;2.10;;;22.30;84.60;;;;;;5056974;28;20132;-39
2023/08/17 09:36:10;;;;;;;4.18;1.90;;;20.50;83.70;;;;;;5054287;28;20131;-39
2023/08/17 09:38:38;;;;;;;3.85;1.90;;;21.30;67.30;;;;;;5071748;28;20136;-34
2023/08/17 09:41:06;;;;;;;5.25;1.90;;;21.30;67.30;;;;;;5071871;28;20075;-37
2023/08/17 09:43:33;;;;;;;3.25;1.60;;;;;;;;;;5063233;28;20424;-33
2023/08/17 09:46:01;;;;;;;4.03;1.70;;;21.20;84.20;;;;;;5064917;28;20041;-36
2023/08/17 09:48:28;;;;;;;3.65;1.90;;;20.10;68.20;;;;;;5056666;28;20052;-36
2023/08/17 09:50:57;;;;;;;4.40;1.90;;;21.30;67.40;;;;;;5062563;28;20052;-37
2023/08/17 09:53:24;;;;;;;4.28;2.00;;;21.90;84.50;;;;;;5058928;28;20167;-37
2023/08/17 09:55:51;;;;;;;2.88;1.80;;;21.40;84.60;;;;;;5059865;28;20064;-37
2023/08/17 09:58:19;;;;;;;2.70;1.65;;;21.30;72.20;;;;;;5059482;28;20143;-34
2023/08/17 10:00:46;;;;;;;2.95;1.85;;;21.50;70.90;;;;;;5069586;28;20080;-35
2023/08/17 10:03:14;;;;;;;3.55;1.70;;;21.50;84.70;;;;;;5071554;28;20549;-35
2023/08/17 10:05:42;;;;;;;3.05;1.65;;;21.00;84.10;;;;;;5071436;28;20136;-36
2023/08/17 10:08:08;;;;;;;2.95;1.73;;;21.20;84.40;;;;;;5071695;28;20132;-36
2023/08/17 10:10:36;;;;;;;3.67;1.67;;;21.30;84.20;;;;;;5058670;28;20088;-39
2023/08/17 10:13:07;;;;;;;3.72;1.58;;;21.40;84.30;;;;;;5060119;28;20087;-37
2023/08/17 10:15:38;;;;;;;3.53;1.80;;;21.00;79.00;;;;;;5068206;28;20049;-35
2023/08/17 10:18:10;;;;;;;2.97;1.55;;;21.80;84.80;;;;;;5065525;28;20057;-37
2023/08/17 10:20:36;;;;;;;1.80;1.48;;;21.30;84.60;;;;;;5054596;28;20049;-36
2023/08/17 10:23:08;;;;;;;2.83;1.70;;;21.40;67.60;;;;;;5062364;28;20123;-33
2023/08/17 10:25:35;;;;;;;5.00;1.80;;;21.20;84.30;;;;;;5059376;28;20225;-37
2023/08/17 10:28:03;;;;;;;2.40;1.48;;;21.70;84.60;;;;;;5061975;28;20068;-35
2023/08/17 10:30:30;;;;;;;2.38;1.38;;;21.50;84.90;;;;;;5060474;28;20109;-37
2023/08/17 10:32:58;;;;;;;4.13;1.92;;;21.30;73.30;;;;;;5066842;28;20128;-32
2023/08/17 10:35:25;;;;;;;2.88;1.60;;;21.80;72.80;;;;;;5061717;28;20191;-32
2023/08/17 10:37:51;;;;;;;3.40;1.40;;;21.20;84.40;;;;;;5058137;28;20139;-31
2023/08/17 10:40:18;;;;;;;3.08;1.65;;;21.50;85.00;;;;;;5054946;28;20048;-31
2023/08/17 10:42:46;;;;;;;1.85;1.60;;;;;;;;;;5054551;28;20498;-34
2023/08/17 10:45:29;;;;;;;2.13;1.40;;;21.40;67.80;;;;;;5056365;28;20057;-36
2023/08/17 10:48:28;;;;;;;2.90;1.60;;;21.30;84.80;;;;;;5054307;28;20053;-30
2023/08/17 10:51:02;;;;;;;2.78;1.42;;;21.40;67.80;;;;;;5042727;28;20080;-33
2023/08/17 10:53:29;;;;;;;4.50;1.45;;;;;;;;;;5061581;28;20144;-35
2023/08/17 10:55:58;;;;;;;3.28;1.40;;;21.30;84.40;;;;;;5054548;28;20065;-37
2023/08/17 10:58:25;;;;;;;2.30;1.40;;;;;;;;;;5064118;28;20048;-37
2023/08/17 11:00:55;;;;;;;2.83;1.48;;;21.40;67.60;;;;;;5073243;28;20131;-35
2023/08/17 11:03:23;;;;;;;3.65;1.40;;;;;;;;;;5054182;28;20055;-39
2023/08/17 11:05:53;;;;;;;2.15;1.30;;;21.50;67.70;;;;;;5052984;28;20048;-34
2023/08/17 11:08:24;;;;;;;4.13;1.50;;;21.20;69.00;;;;;;5053983;28;20049;-36
2023/08/17 11:10:58;;;;;;;1.95;1.40;;;22.20;85.20;;;;;;5053223;28;20091;-36
2023/08/17 11:13:26;;;;;;;3.17;1.48;;;;;;;;;;5063119;28;20060;-38
2023/08/17 11:15:52;;;;;;;3.00;1.52;;;21.70;84.60;;;;;;5071298;28;20127;-31
2023/08/17 11:18:19;;;;;;;4.13;1.50;;;21.00;84.70;;;;;;5073737;28;20497;-31
2023/08/17 11:20:46;;;;;;;2.45;1.30;;;;;;;;;;5074216;28;20132;-34
2023/08/17 11:23:14;;;;;;;2.70;1.40;;;21.60;84.80;;;;;;5073921;28;20494;-30
2023/08/17 11:25:42;;;;;;;2.25;1.50;;;20.70;84.30;;;;;;5074104;28;20136;-31
2023/08/17 11:28:09;;;;;;;3.00;1.60;;;21.50;84.60;;;;;;5074343;28;20135;-31
2023/08/17 11:30:38;;;;;;;3.08;1.50;;;;;;;;;;5074130;28;20049;-35
2023/08/17 11:33:05;;;;;;;1.90;1.30;;;21.00;84.70;;;;;;5073916;28;20497;-31
2023/08/17 11:35:32;;;;;;;3.45;1.30;;;20.70;85.00;;;;;;5056375;28;20131;-31
2023/08/17 11:37:59;;;;;;;3.65;1.50;;;;;;;;;;5070971;28;20131;-33
2023/08/17 11:40:27;;;;;;;2.55;1.80;;;21.60;84.60;;;;;;5074210;28;20155;-30
2023/08/17 11:42:54;;;;;;;2.65;1.42;;;21.80;84.80;;;;;;5073503;28;20465;-36
2023/08/17 11:45:21;;;;;;;4.78;1.58;;;21.30;70.80;;;;;;5074141;28;20052;-33
2023/08/17 11:47:48;;;;;;;3.47;1.73;;;21.90;84.90;;;;;;5074108;28;20080;-31
2023/08/17 11:50:15;;;;;;;2.75;1.58;;;22.40;85.10;;;;;;5070568;28;20119;-31
2023/08/17 11:52:41;;;;;;;3.72;1.85;;;21.60;85.00;;;;;;5053381;28;20060;-30
2023/08/17 11:55:09;;;;;;;7.20;1.77;;;21.90;84.80;;;;;;5067369;28;20466;-30
2023/08/17 11:57:38;;;;;;;2.53;1.50;;;21.80;85.10;;;;;;5070549;28;20055;-30
2023/08/17 12:00:06;;;;;;;5.97;1.80;;;20.50;84.10;;;;;;5062725;28;20128;-30
2023/08/17 12:02:37;;;;;;;3.13;1.67;;;;;;;;;;5055679;28;20045;-33
2023/08/17 12:05:06;;;;;;;2.55;1.50;;;22.40;85.50;;;;;;5053495;28;20049;-31
2023/08/17 12:07:33;;;;;;;3.22;1.40;;;21.70;85.60;;;;;;5054731;28;20498;-30
2023/08/17 12:10:00;;;;;;;2.80;1.50;;;;;;;;;;5053551;28;20084;-35
2023/08/17 12:12:28;;;;;;;2.40;1.45;;;21.80;78.40;;;;;;5053193;28;20087;-30
2023/08/17 12:14:57;;;;;;;2.50;1.50;;;21.30;84.40;;;;;;5060363;28;20052;-32
2023/08/17 12:17:24;;;;;;;2.80;1.63;;;21.20;84.20;;;;;;5072916;28;20109;-31
2023/08/17 12:19:51;;;;;;;2.28;1.60;;;21.70;85.00;;;;;;5073340;28;20151;-32
2023/08/17 12:22:18;;;;;;;2.30;1.52;;;21.60;71.20;;;;;;5073033;28;20094;-33
2023/08/17 12:24:45;;;;;;;3.50;1.50;;;21.90;84.50;;;;;;5071520;28;20119;-30
2023/08/17 12:27:11;;;;;;;4.25;1.60;;;21.60;84.40;;;;;;5059729;28;20123;-31
2023/08/17 12:29:48;;;;;;;3.10;1.65;;;22.10;71.40;;;;;;5053131;28;20056;-35
2023/08/17 12:32:16;;;;;;;3.00;1.40;;;21.90;75.40;;;;;;5052693;28;20049;-32
2023/08/17 12:34:43;;;;;;;2.95;1.65;;;22.20;84.80;;;;;;5053268;28;20045;-31
2023/08/17 12:37:10;;;;;;;3.83;1.63;;;20.90;84.50;;;;;;5063579;28;20087;-31
2023/08/17 12:39:37;;;;;;;2.85;1.63;;;21.70;85.40;;;;;;5065092;28;20045;-31
2023/08/17 12:42:04;;;;;;;2.47;1.58;;;21.70;79.90;;;;;;5065292;28;20124;-32
2023/08/17 12:44:31;;;;;;;2.50;1.63;;;21.30;73.00;;;;;;5063123;28;20119;-32
2023/08/17 12:46:57;;;;;;;2.88;1.55;;;21.40;70.30;;;;;;5058102;28;20128;-31
2023/08/17 12:49:27;;;;;;;1.80;1.40;;;21.20;85.00;;;;;;5071250;28;20074;-40
2023/08/17 12:51:53;;;;;;;2.10;1.58;;;22.70;78.40;;;;;;5070281;28;20556;-37
2023/08/17 12:54:20;;;;;;;2.42;1.60;;;20.90;69.30;;;;;;5070519;28;20127;-38
2023/08/17 12:56:47;;;;;;;3.25;1.70;;;;;;;;;;5060373;28;20124;-33
2023/08/17 12:59:14;;;;;;;2.78;1.77;;;;;;;;;;5061158;28;20515;-35
2023/08/17 13:01:41;;;;;;;2.35;1.50;;;;;;;;;;5059676;28;20446;-35
2023/08/17 13:04:08;;;;;;;2.97;1.80;;;;;;;;;;5068566;28;20044;-31
2023/08/17 13:06:37;;;;;;;4.15;1.77;;;22.00;71.00;;;;;;5071681;28;20131;-34
2023/08/17 13:09:04;;;;;;;3.03;1.80;;;21.80;69.20;;;;;;5071186;28;20127;-32